createdAt,value
2018-05-31T00:06:56.231Z,21.60
2018-05-31T00:12:02.343Z,21.60
2018-05-31T00:17:16.991Z,21.50
2018-05-31T00:22:21.355Z,21.50
2018-05-31T00:27:35.039Z,21.40
2018-05-31T00:32:44.563Z,21.40
2018-05-31T00:37:51.475Z,21.40
2018-05-31T00:43:00.469Z,21.30
2018-05-31T00:48:11.222Z,21.30
2018-05-31T00:53:27.147Z,21.20
2018-05-31T00:58:33.231Z,21.20
2018-05-31T01:09:42.060Z,21.20
2018-05-31T01:14:44.588Z,21.20
2018-05-31T01:19:47.124Z,21.10
2018-05-31T01:24:49.659Z,21.10
2018-05-31T01:29:52.204Z,21.00
2018-05-31T01:34:54.730Z,21.00
2018-05-31T01:39:57.258Z,21.00
2018-05-31T01:44:59.788Z,20.90
2018-05-31T01:50:02.324Z,20.90
2018-05-31T01:55:05.625Z,20.80
2018-05-31T02:00:08.168Z,20.80
2018-05-31T02:05:10.689Z,20.80
2018-05-31T02:10:13.219Z,20.70
2018-05-31T02:15:15.743Z,20.70
2018-05-31T02:20:19.029Z,20.60
2018-05-31T02:25:21.568Z,20.60
2018-05-31T02:30:24.096Z,20.60
2018-05-31T02:35:26.709Z,20.60
2018-05-31T02:40:29.255Z,20.50
2018-05-31T02:45:31.789Z,20.50
2018-05-31T02:50:34.328Z,20.40
2018-05-31T02:55:36.870Z,20.40
2018-05-31T03:00:39.406Z,20.40
2018-05-31T03:05:43.454Z,20.30
2018-05-31T03:10:48.165Z,20.30
2018-05-31T03:15:51.079Z,20.30
2018-05-31T03:20:54.828Z,20.20
2018-05-31T03:25:59.824Z,20.20
2018-05-31T03:31:02.705Z,20.10
2018-05-31T03:36:07.734Z,20.10
2018-05-31T03:41:13.002Z,20.10
2018-05-31T03:46:20.313Z,20.00
2018-05-31T03:51:23.853Z,20.00
2018-05-31T03:56:27.504Z,20.00
2018-05-31T04:01:32.358Z,20.00
2018-05-31T04:06:36.482Z,20.00
2018-05-31T04:11:40.287Z,20.00
2018-05-31T04:16:45.363Z,20.00
2018-05-31T04:21:48.531Z,20.00
2018-05-31T04:26:51.624Z,20.00
2018-05-31T04:31:55.277Z,20.00
2018-05-31T04:36:59.447Z,20.00
2018-05-31T04:42:02.327Z,20.00
2018-05-31T04:47:10.253Z,20.10
2018-05-31T04:52:14.189Z,20.10
2018-05-31T04:57:18.687Z,20.20
2018-05-31T05:02:21.983Z,20.20
2018-05-31T05:12:35.128Z,20.30
2018-05-31T05:17:38.412Z,20.30
2018-05-31T05:22:41.058Z,20.40
2018-05-31T05:27:45.520Z,20.40
2018-05-31T05:32:48.202Z,20.50
2018-05-31T05:37:52.787Z,20.70
2018-05-31T05:42:55.795Z,20.70
2018-05-31T05:47:58.801Z,20.80
2018-05-31T05:53:02.302Z,21.00
2018-05-31T05:58:05.648Z,21.20
2018-05-31T06:08:18.837Z,21.60
2018-05-31T06:13:23.579Z,21.80
2018-05-31T06:18:27.052Z,22.00
2018-05-31T06:23:30.647Z,22.20
2018-05-31T06:28:33.306Z,22.50
2018-05-31T06:33:36.001Z,22.70
2018-05-31T06:38:41.188Z,23.30
2018-05-31T06:43:43.943Z,23.20
2018-05-31T06:48:47.709Z,23.60
2018-05-31T06:53:50.577Z,23.90
2018-05-31T06:58:55.360Z,24.20
2018-05-31T07:03:58.554Z,24.50
2018-05-31T07:09:02.273Z,24.90
2018-05-31T07:14:05.733Z,25.20
2018-05-31T07:19:08.768Z,25.50
2018-05-31T07:24:11.701Z,25.80
2018-05-31T07:29:15.503Z,26.10
2018-05-31T07:34:20.334Z,26.40
2018-05-31T07:39:28.320Z,26.70
2018-05-31T07:44:31.291Z,27.00
2018-05-31T07:49:34.141Z,27.20
2018-05-31T07:54:37.131Z,27.40
2018-05-31T07:59:40.264Z,27.70
2018-05-31T08:04:43.905Z,27.90
2018-05-31T08:09:46.988Z,28.20
2018-05-31T08:14:50.084Z,28.30
2018-05-31T08:19:53.016Z,28.50
2018-05-31T08:24:55.984Z,28.60
2018-05-31T08:29:58.686Z,28.80
2018-05-31T08:35:01.667Z,28.90
2018-05-31T08:40:05.177Z,29.30
2018-05-31T08:45:08.138Z,29.40
2018-05-31T08:50:10.744Z,29.60
2018-05-31T08:55:13.432Z,29.90
2018-05-31T09:00:16.064Z,30.10
2018-05-31T09:05:18.805Z,30.10
2018-05-31T09:10:21.406Z,30.40
2018-05-31T09:15:24.003Z,30.60
2018-05-31T09:20:26.656Z,30.80
2018-05-31T09:25:29.293Z,30.90
2018-05-31T09:30:32.382Z,31.10
2018-05-31T09:35:34.997Z,31.10
2018-05-31T09:40:50.774Z,31.30
2018-05-31T09:45:54.216Z,31.40
2018-05-31T09:51:10.776Z,31.70
2018-05-31T09:56:14.921Z,31.60
2018-05-31T10:01:19.488Z,31.80
2018-05-31T10:06:23.677Z,32.10
2018-05-31T10:11:32.534Z,32.20
2018-05-31T10:16:36.071Z,32.20
2018-05-31T10:21:40.307Z,32.30
2018-05-31T10:26:44.185Z,32.40
2018-05-31T10:31:49.237Z,32.90
2018-05-31T10:37:06.266Z,32.80
2018-05-31T10:42:09.725Z,33.00
2018-05-31T10:47:18.769Z,33.20
2018-05-31T10:52:22.233Z,33.30
2018-05-31T10:57:26.593Z,33.50
2018-05-31T11:02:30.446Z,33.50
2018-05-31T11:07:34.446Z,33.50
2018-05-31T11:12:51.850Z,33.70
2018-05-31T11:17:55.436Z,33.70
2018-05-31T11:23:03.421Z,33.80
2018-05-31T11:28:07.761Z,34.00
2018-05-31T11:33:37.992Z,34.10
2018-05-31T11:38:41.581Z,34.10
2018-05-31T11:43:58.397Z,34.30
2018-05-31T11:49:02.465Z,34.30
2018-05-31T11:54:18.970Z,34.40
2018-05-31T11:59:23.341Z,34.50
2018-05-31T12:04:41.065Z,34.60
2018-05-31T12:09:44.936Z,34.70
2018-05-31T12:14:53.222Z,34.80
2018-05-31T12:19:57.273Z,34.80
2018-05-31T12:25:00.832Z,34.90
2018-05-31T12:30:16.826Z,34.90
2018-05-31T12:35:46.037Z,35.00
2018-05-31T12:40:49.875Z,35.00
2018-05-31T12:45:58.855Z,35.10
2018-05-31T12:51:02.713Z,35.10
2018-05-31T12:56:09.467Z,35.20
2018-05-31T13:01:13.370Z,35.20
2018-05-31T13:06:29.813Z,35.30
2018-05-31T13:11:34.700Z,35.30
2018-05-31T13:16:38.870Z,35.30
2018-05-31T13:21:54.784Z,35.30
2018-05-31T13:26:58.456Z,35.40
2018-05-31T13:32:06.418Z,35.30
2018-05-31T13:37:10.160Z,35.30
2018-05-31T13:42:14.317Z,35.30
2018-05-31T13:47:18.222Z,35.30
2018-05-31T13:52:21.868Z,35.30
2018-05-31T13:57:30.115Z,35.30
2018-05-31T14:02:34.502Z,35.30
2018-05-31T14:07:38.137Z,35.20
2018-05-31T14:12:42.093Z,35.20
2018-05-31T14:17:46.051Z,35.20
2018-05-31T14:23:03.377Z,35.20
2018-05-31T14:28:07.533Z,35.20
2018-05-31T14:33:15.448Z,35.00
2018-05-31T14:38:18.913Z,34.80
2018-05-31T14:43:22.788Z,34.70
2018-05-31T14:48:27.022Z,34.70
2018-05-31T14:53:30.876Z,34.60
2018-05-31T14:58:39.019Z,34.50
2018-05-31T15:03:42.689Z,34.50
2018-05-31T15:08:46.552Z,34.50
2018-05-31T15:13:50.325Z,34.50
2018-05-31T15:18:54.473Z,34.40
2018-05-31T15:24:03.145Z,34.30
2018-05-31T15:29:07.688Z,34.20
2018-05-31T15:34:13.028Z,34.10
2018-05-31T15:39:17.091Z,34.00
2018-05-31T15:44:21.862Z,33.90
2018-05-31T15:49:37.109Z,33.70
2018-05-31T15:54:41.072Z,33.60
2018-05-31T15:59:56.659Z,33.40
2018-05-31T16:05:01.420Z,33.20
2018-05-31T16:15:11.070Z,32.80
2018-05-31T16:20:15.014Z,32.50
2018-05-31T16:25:18.742Z,32.30
2018-05-31T16:30:34.440Z,32.10
2018-05-31T16:35:39.112Z,31.90
2018-05-31T16:40:55.343Z,31.70
2018-05-31T16:45:59.181Z,31.40
2018-05-31T16:51:06.606Z,31.30
2018-05-31T16:56:10.248Z,31.00
2018-05-31T17:01:14.098Z,30.90
2018-05-31T17:06:18.049Z,30.80
2018-05-31T17:11:22.471Z,30.70
2018-05-31T17:16:27.027Z,30.50
2018-05-31T17:21:31.301Z,30.40
2018-05-31T17:26:35.399Z,30.20
2018-05-31T17:31:38.833Z,30.00
2018-05-31T17:36:54.741Z,29.90
2018-05-31T17:41:58.563Z,29.70
2018-05-31T17:52:07.605Z,29.30
2018-05-31T17:57:11.268Z,29.20
2018-05-31T18:02:14.155Z,29.10
2018-05-31T18:07:29.876Z,29.00
2018-05-31T18:12:34.644Z,28.80
2018-05-31T18:17:52.520Z,28.60
2018-05-31T18:22:56.789Z,28.50
2018-05-31T18:28:13.874Z,28.20
2018-05-31T18:33:20.366Z,28.10
2018-05-31T18:38:36.442Z,27.90
2018-05-31T18:43:41.499Z,27.90
2018-05-31T18:48:57.496Z,27.70
2018-05-31T18:54:01.705Z,27.50
2018-05-31T18:59:09.515Z,27.40
2018-05-31T19:04:13.173Z,27.20
2018-05-31T19:09:22.866Z,27.00
2018-05-31T19:14:26.721Z,26.80
2018-05-31T19:19:35.633Z,26.70
2018-05-31T19:24:44.043Z,26.60
2018-05-31T19:29:46.936Z,26.40
2018-05-31T19:34:49.704Z,26.30
2018-05-31T19:39:52.403Z,26.20
2018-05-31T19:44:55.099Z,26.10
2018-05-31T19:49:57.684Z,26.00
2018-05-31T19:55:00.332Z,25.90
2018-05-31T20:00:09.547Z,25.80
2018-05-31T20:05:16.368Z,25.80
2018-05-31T20:10:19.854Z,25.60
2018-05-31T20:15:22.605Z,25.60
2018-05-31T20:20:25.385Z,25.50
2018-05-31T20:25:28.363Z,25.40
2018-05-31T20:30:31.157Z,25.30
2018-05-31T20:35:34.662Z,25.10
2018-05-31T20:40:37.432Z,25.00
2018-05-31T20:45:40.184Z,25.00
2018-05-31T20:50:42.870Z,24.80
2018-05-31T20:55:45.725Z,24.80
2018-05-31T21:00:48.623Z,24.60
2018-05-31T21:05:51.533Z,24.60
2018-05-31T21:10:54.698Z,24.50
2018-05-31T21:15:57.601Z,24.40
2018-05-31T21:21:01.398Z,24.30
2018-05-31T21:26:04.363Z,24.20
2018-05-31T21:31:07.040Z,24.20
2018-05-31T21:36:09.792Z,24.10
2018-05-31T21:41:12.575Z,24.00
2018-05-31T21:46:15.461Z,24.00
2018-05-31T21:51:18.058Z,23.90
2018-05-31T21:56:21.029Z,23.80
2018-05-31T22:01:23.915Z,23.70
2018-05-31T22:06:26.675Z,23.70
2018-05-31T22:11:29.409Z,23.60
2018-05-31T22:16:32.693Z,23.50
2018-05-31T22:21:35.362Z,23.40
2018-05-31T22:26:38.552Z,23.30
2018-05-31T22:31:41.322Z,23.30
2018-05-31T22:36:44.172Z,23.20
2018-05-31T22:41:46.859Z,23.10
2018-05-31T22:46:49.985Z,23.10
2018-05-31T22:51:52.665Z,23.00
2018-05-31T22:56:55.755Z,22.90
2018-05-31T23:01:58.818Z,22.90
2018-05-31T23:07:01.503Z,22.80
2018-05-31T23:12:05.300Z,22.80
2018-05-31T23:17:08.051Z,22.70
2018-05-31T23:22:12.013Z,22.70
2018-05-31T23:27:14.572Z,22.60
2018-05-31T23:32:17.473Z,22.50
2018-05-31T23:37:21.667Z,22.50
2018-05-31T23:42:25.025Z,22.40
2018-05-31T23:47:27.750Z,22.40
2018-05-31T23:52:30.763Z,22.30
2018-05-31T23:57:33.757Z,22.30
